Roatan, Honduras

11:41 PM CST on August 27, 2014 (GMT -0600)
Calabash Bight | Change Station
CLOSE
Current Station
Personal Weather Station
Location: Calabash Bight, Islas de la Bahia
Elevation: 96 ft
Nearby Weather Stations

Elev 96 ft 16.40 °N, 86.34 °W | Updated 13 minutes ago

Mostly Cloudy
Mostly Cloudy
82.6 °F
Feels Like 92 °F
N
13.0
Wind Variable Wind from SE
Gusts 17.0 mph

Today
High -- | Low -- °F
--% Chance of Precip.
Yesterday
High -- | Low -- °F
Precip. -- in
5:32 AM 6:02 PM
Waxing Crescent, 6% visible
Pressure 29.89 in
Visibility 6.2 miles
Clouds Scattered Clouds 2600 ft
Scattered Clouds 8000 ft
Mostly Cloudy 20000 ft
Heat Index 92 °F
Dew Point 78 °F
Humidity 85%
Rainfall 0.00 in
Snow Depth Not available.
UV 0 out of 12
Pollen Not available.
Air Quality Not available.
Flu Activity Not available.
METAR MHLC 280500Z 13003KT 9999 SCT026 SCT080 BKN200 25/23 Q1012 A2989 NOSIG

More Conditions Fewer Conditions

Pressure 29.89 in
Visibility 6.2 miles
Clouds Scattered Clouds 2600 ft
Scattered Clouds 8000 ft
Mostly Cloudy 20000 ft
Heat Index 92 °F
Dew Point 78 °F
Humidity 85%
Rainfall 0.00 in
Snow Depth Not available.
UV 0 out of 12
Pollen Not available.
Air Quality Not available.
Flu Activity Not available.
METAR MHLC 280500Z 13003KT 9999 SCT026 SCT080 BKN200 25/23 Q1012 A2989 NOSIG

More Conditions Fewer Conditions

10-Day Weather Forecast

Almanac

Astronomy

Aug. 27, 2014 Rise Set
Actual Time 5:32 AM CST 6:02 PM CST
Civil Twilight 5:10 AM CST 6:24 PM CST
Nautical Twilight 4:44 AM CST 6:50 PM CST
Astronomical Twilight 4:18 AM CST 7:16 PM CST
Moon 7:04 AM CST (8/27) 7:22 PM CST (8/27)
Length of Visible Light 13h 14m
Length of Day
12h 30m
Tomorrow will be 0m 51s shorter.
Waxing Crescent, 6% of the Moon is Illuminated
Aug 28
Waxing Crescent
Sep 2
First Quarter
Sep 8
Full
Sep 15
Last Quarter
Sep 24
New

Today's Extremes

Country Highs Country Lows

Community

WunderPhotos

Upload Photos

1,747,909 photos uploaded!

Nearby

Snow Depth

Not available.

Earthquake Activity

City Distance Mag. Time & Date
No recent earthquake activity has been reported nearby.
Minimum magnitude displayed is 2.5.

Coastal Water Temperatures

Place Temperature
No Stations Reporting

Nearby Weather Stations